sensor_id;sensor_type;location;lat;lon;timestamp;temperature;humidity
69393;SHT31;56582;44.624;20.378;2024-03-06T00:02:08;10.59;89.64
69393;SHT31;56582;44.624;20.378;2024-03-06T00:04:34;10.60;89.91
69393;SHT31;56582;44.624;20.378;2024-03-06T00:07:00;10.59;89.71
69393;SHT31;56582;44.624;20.378;2024-03-06T00:09:26;10.55;90.14
69393;SHT31;56582;44.624;20.378;2024-03-06T00:11:55;10.52;90.10
69393;SHT31;56582;44.624;20.378;2024-03-06T00:14:21;10.46;89.97
69393;SHT31;56582;44.624;20.378;2024-03-06T00:16:48;10.49;90.11
69393;SHT31;56582;44.624;20.378;2024-03-06T00:19:18;10.65;89.84
69393;SHT31;56582;44.624;20.378;2024-03-06T00:21:44;10.90;88.88
69393;SHT31;56582;44.624;20.378;2024-03-06T00:24:13;10.87;88.51
69393;SHT31;56582;44.624;20.378;2024-03-06T00:26:42;10.80;88.84
69393;SHT31;56582;44.624;20.378;2024-03-06T00:29:09;10.65;89.09
69393;SHT31;56582;44.624;20.378;2024-03-06T00:31:34;10.52;89.38
69393;SHT31;56582;44.624;20.378;2024-03-06T00:34:00;10.46;89.65
69393;SHT31;56582;44.624;20.378;2024-03-06T00:36:26;10.58;89.39
69393;SHT31;56582;44.624;20.378;2024-03-06T00:38:51;10.63;88.84
69393;SHT31;56582;44.624;20.378;2024-03-06T00:41:17;10.70;88.34
69393;SHT31;56582;44.624;20.378;2024-03-06T00:43:43;10.79;87.94
69393;SHT31;56582;44.624;20.378;2024-03-06T00:46:08;10.84;87.34
69393;SHT31;56582;44.624;20.378;2024-03-06T00:48:34;10.95;87.33
69393;SHT31;56582;44.624;20.378;2024-03-06T00:51:00;10.52;88.42
69393;SHT31;56582;44.624;20.378;2024-03-06T00:53:25;10.48;88.40
69393;SHT31;56582;44.624;20.378;2024-03-06T00:55:52;10.49;88.59
69393;SHT31;56582;44.624;20.378;2024-03-06T00:58:19;10.22;88.28
69393;SHT31;56582;44.624;20.378;2024-03-06T01:00:44;10.45;88.36
69393;SHT31;56582;44.624;20.378;2024-03-06T01:03:10;10.59;87.66
69393;SHT31;56582;44.624;20.378;2024-03-06T01:05:36;10.72;86.98
69393;SHT31;56582;44.624;20.378;2024-03-06T01:08:01;10.66;87.27
69393;SHT31;56582;44.624;20.378;2024-03-06T01:10:27;10.73;87.20
69393;SHT31;56582;44.624;20.378;2024-03-06T01:12:53;10.70;87.15
69393;SHT31;56582;44.624;20.378;2024-03-06T01:15:18;10.70;87.37
69393;SHT31;56582;44.624;20.378;2024-03-06T01:17:44;10.72;87.84
69393;SHT31;56582;44.624;20.378;2024-03-06T01:20:10;10.80;87.87
69393;SHT31;56582;44.624;20.378;2024-03-06T01:22:36;10.73;88.10
69393;SHT31;56582;44.624;20.378;2024-03-06T01:25:01;10.65;88.80
69393;SHT31;56582;44.624;20.378;2024-03-06T01:27:27;10.76;88.99
69393;SHT31;56582;44.624;20.378;2024-03-06T01:29:53;10.72;89.07
69393;SHT31;56582;44.624;20.378;2024-03-06T01:32:18;10.76;88.90
69393;SHT31;56582;44.624;20.378;2024-03-06T01:34:44;10.75;89.00
69393;SHT31;56582;44.624;20.378;2024-03-06T01:37:09;10.59;89.57
69393;SHT31;56582;44.624;20.378;2024-03-06T01:39:36;10.66;89.20
69393;SHT31;56582;44.624;20.378;2024-03-06T01:42:02;10.77;88.77
69393;SHT31;56582;44.624;20.378;2024-03-06T01:44:29;10.96;88.25
69393;SHT31;56582;44.624;20.378;2024-03-06T01:46:54;10.99;88.04
69393;SHT31;56582;44.624;20.378;2024-03-06T01:49:21;11.06;88.01
69393;SHT31;56582;44.624;20.378;2024-03-06T01:51:53;11.03;88.04
69393;SHT31;56582;44.624;20.378;2024-03-06T01:54:19;11.04;88.02
69393;SHT31;56582;44.624;20.378;2024-03-06T01:56:46;10.96;88.16
69393;SHT31;56582;44.624;20.378;2024-03-06T01:59:16;10.87;88.38
69393;SHT31;56582;44.624;20.378;2024-03-06T02:01:44;10.95;88.24
69393;SHT31;56582;44.624;20.378;2024-03-06T02:04:12;11.04;88.19
69393;SHT31;56582;44.624;20.378;2024-03-06T02:06:41;11.25;88.24
69393;SHT31;56582;44.624;20.378;2024-03-06T02:09:07;11.16;87.56
69393;SHT31;56582;44.624;20.378;2024-03-06T02:11:33;10.96;87.66
69393;SHT31;56582;44.624;20.378;2024-03-06T02:13:59;11.01;87.43
69393;SHT31;56582;44.624;20.378;2024-03-06T02:16:24;11.01;87.66
69393;SHT31;56582;44.624;20.378;2024-03-06T02:18:54;11.07;87.97
69393;SHT31;56582;44.624;20.378;2024-03-06T02:21:21;11.03;88.03
69393;SHT31;56582;44.624;20.378;2024-03-06T02:23:47;11.01;88.09
69393;SHT31;56582;44.624;20.378;2024-03-06T02:26:13;10.90;88.62
69393;SHT31;56582;44.624;20.378;2024-03-06T02:28:38;10.87;88.65
69393;SHT31;56582;44.624;20.378;2024-03-06T02:31:04;10.92;88.48
69393;SHT31;56582;44.624;20.378;2024-03-06T02:33:32;11.01;88.35
69393;SHT31;56582;44.624;20.378;2024-03-06T02:35:59;10.92;88.24
69393;SHT31;56582;44.624;20.378;2024-03-06T02:38:25;10.93;88.38
69393;SHT31;56582;44.624;20.378;2024-03-06T02:40:50;10.84;88.66
69393;SHT31;56582;44.624;20.378;2024-03-06T02:43:16;10.80;88.82
69393;SHT31;56582;44.624;20.378;2024-03-06T02:45:41;10.92;88.33
69393;SHT31;56582;44.624;20.378;2024-03-06T02:48:07;10.84;88.68
69393;SHT31;56582;44.624;20.378;2024-03-06T02:50:32;10.76;88.97
69393;SHT31;56582;44.624;20.378;2024-03-06T02:52:58;10.62;89.15
69393;SHT31;56582;44.624;20.378;2024-03-06T02:55:23;10.69;89.07
69393;SHT31;56582;44.624;20.378;2024-03-06T02:57:50;10.80;88.76
69393;SHT31;56582;44.624;20.378;2024-03-06T03:00:16;10.83;88.68
69393;SHT31;56582;44.624;20.378;2024-03-06T03:02:41;10.81;88.80
69393;SHT31;56582;44.624;20.378;2024-03-06T03:05:08;10.66;88.99
69393;SHT31;56582;44.624;20.378;2024-03-06T03:07:34;10.45;89.23
69393;SHT31;56582;44.624;20.378;2024-03-06T03:09:59;10.37;89.45
69393;SHT31;56582;44.624;20.378;2024-03-06T03:12:25;10.32;89.68
69393;SHT31;56582;44.624;20.378;2024-03-06T03:14:50;10.38;89.71
69393;SHT31;56582;44.624;20.378;2024-03-06T03:17:18;10.46;89.42
69393;SHT31;56582;44.624;20.378;2024-03-06T03:19:44;10.50;89.54
69393;SHT31;56582;44.624;20.378;2024-03-06T03:22:10;10.58;89.38
69393;SHT31;56582;44.624;20.378;2024-03-06T03:24:36;10.72;89.34
69393;SHT31;56582;44.624;20.378;2024-03-06T03:27:02;10.81;88.86
69393;SHT31;56582;44.624;20.378;2024-03-06T03:29:28;10.81;88.59
69393;SHT31;56582;44.624;20.378;2024-03-06T03:31:54;10.79;88.53
69393;SHT31;56582;44.624;20.378;2024-03-06T03:34:20;10.84;88.36
69393;SHT31;56582;44.624;20.378;2024-03-06T03:36:46;10.69;88.40
69393;SHT31;56582;44.624;20.378;2024-03-06T03:39:12;10.68;88.63
69393;SHT31;56582;44.624;20.378;2024-03-06T03:41:48;10.68;88.71
69393;SHT31;56582;44.624;20.378;2024-03-06T03:44:14;10.72;88.28
69393;SHT31;56582;44.624;20.378;2024-03-06T03:46:40;10.58;88.25
69393;SHT31;56582;44.624;20.378;2024-03-06T03:49:06;10.49;88.35
69393;SHT31;56582;44.624;20.378;2024-03-06T03:51:31;10.34;89.14
69393;SHT31;56582;44.624;20.378;2024-03-06T03:53:57;10.28;89.26
69393;SHT31;56582;44.624;20.378;2024-03-06T03:56:22;10.44;89.34
69393;SHT31;56582;44.624;20.378;2024-03-06T03:58:48;10.45;88.93
69393;SHT31;56582;44.624;20.378;2024-03-06T04:01:13;10.45;88.99
69393;SHT31;56582;44.624;20.378;2024-03-06T04:03:39;10.29;89.09
69393;SHT31;56582;44.624;20.378;2024-03-06T04:06:06;10.11;89.87
69393;SHT31;56582;44.624;20.378;2024-03-06T04:08:32;10.12;90.27
69393;SHT31;56582;44.624;20.378;2024-03-06T04:10:58;10.17;89.82
69393;SHT31;56582;44.624;20.378;2024-03-06T04:13:23;10.27;89.35
69393;SHT31;56582;44.624;20.378;2024-03-06T04:15:49;10.42;89.10
69393;SHT31;56582;44.624;20.378;2024-03-06T04:18:14;10.42;88.59
69393;SHT31;56582;44.624;20.378;2024-03-06T04:20:40;10.39;88.50
69393;SHT31;56582;44.624;20.378;2024-03-06T04:23:05;10.28;88.75
69393;SHT31;56582;44.624;20.378;2024-03-06T04:25:31;10.11;89.47
69393;SHT31;56582;44.624;20.378;2024-03-06T04:27:56;10.18;89.76
69393;SHT31;56582;44.624;20.378;2024-03-06T04:30:22;10.17;89.36
69393;SHT31;56582;44.624;20.378;2024-03-06T04:32:47;10.04;89.94
69393;SHT31;56582;44.624;20.378;2024-03-06T04:35:13;10.02;90.04
69393;SHT31;56582;44.624;20.378;2024-03-06T04:37:39;10.15;89.74
69393;SHT31;56582;44.624;20.378;2024-03-06T04:40:05;10.12;90.02
69393;SHT31;56582;44.624;20.378;2024-03-06T04:42:36;10.12;89.92
69393;SHT31;56582;44.624;20.378;2024-03-06T04:45:03;10.02;90.14
69393;SHT31;56582;44.624;20.378;2024-03-06T04:47:29;10.12;89.99
69393;SHT31;56582;44.624;20.378;2024-03-06T04:49:54;10.15;89.52
69393;SHT31;56582;44.624;20.378;2024-03-06T04:52:20;10.17;89.22
69393;SHT31;56582;44.624;20.378;2024-03-06T04:54:45;10.22;88.80
69393;SHT31;56582;44.624;20.378;2024-03-06T04:57:11;10.32;88.41
69393;SHT31;56582;44.624;20.378;2024-03-06T04:59:36;10.41;88.21
69393;SHT31;56582;44.624;20.378;2024-03-06T05:02:02;10.42;87.71
69393;SHT31;56582;44.624;20.378;2024-03-06T05:04:29;10.39;87.79
69393;SHT31;56582;44.624;20.378;2024-03-06T05:06:54;10.31;87.85
69393;SHT31;56582;44.624;20.378;2024-03-06T05:09:21;10.27;87.91
69393;SHT31;56582;44.624;20.378;2024-03-06T05:11:46;10.27;87.89
69393;SHT31;56582;44.624;20.378;2024-03-06T05:14:15;10.50;87.94
69393;SHT31;56582;44.624;20.378;2024-03-06T05:16:41;10.44;87.22
69393;SHT31;56582;44.624;20.378;2024-03-06T05:19:07;10.38;87.29
69393;SHT31;56582;44.624;20.378;2024-03-06T05:21:33;10.75;86.38
69393;SHT31;56582;44.624;20.378;2024-03-06T05:24:00;11.00;85.45
69393;SHT31;56582;44.624;20.378;2024-03-06T05:26:25;11.11;84.62
69393;SHT31;56582;44.624;20.378;2024-03-06T05:28:51;11.23;84.19
69393;SHT31;56582;44.624;20.378;2024-03-06T05:31:18;11.39;83.61
69393;SHT31;56582;44.624;20.378;2024-03-06T05:33:46;11.92;82.62
69393;SHT31;56582;44.624;20.378;2024-03-06T05:36:12;12.23;82.13
69393;SHT31;56582;44.624;20.378;2024-03-06T05:38:41;12.51;82.21
69393;SHT31;56582;44.624;20.378;2024-03-06T05:41:07;12.74;81.82
69393;SHT31;56582;44.624;20.378;2024-03-06T05:43:34;13.13;81.06
69393;SHT31;56582;44.624;20.378;2024-03-06T05:45:59;13.24;80.91
69393;SHT31;56582;44.624;20.378;2024-03-06T05:48:26;13.36;81.03
69393;SHT31;56582;44.624;20.378;2024-03-06T05:50:52;13.46;81.08
69393;SHT31;56582;44.624;20.378;2024-03-06T05:53:18;12.71;79.78
69393;SHT31;56582;44.624;20.378;2024-03-06T05:55:44;12.29;81.62
69393;SHT31;56582;44.624;20.378;2024-03-06T05:58:09;12.23;82.76
69393;SHT31;56582;44.624;20.378;2024-03-06T06:00:35;12.34;83.31
69393;SHT31;56582;44.624;20.378;2024-03-06T06:03:00;12.51;84.06
69393;SHT31;56582;44.624;20.378;2024-03-06T06:05:26;12.93;84.18
69393;SHT31;56582;44.624;20.378;2024-03-06T06:07:51;13.38;82.73
69393;SHT31;56582;44.624;20.378;2024-03-06T06:10:17;13.66;82.85
69393;SHT31;56582;44.624;20.378;2024-03-06T06:12:42;13.78;82.09
69393;SHT31;56582;44.624;20.378;2024-03-06T06:15:08;13.87;80.77
69393;SHT31;56582;44.624;20.378;2024-03-06T06:17:34;14.02;81.75
69393;SHT31;56582;44.624;20.378;2024-03-06T06:20:00;13.69;79.03
69393;SHT31;56582;44.624;20.378;2024-03-06T06:22:28;13.40;80.38
69393;SHT31;56582;44.624;20.378;2024-03-06T06:24:54;13.50;80.03
69393;SHT31;56582;44.624;20.378;2024-03-06T06:27:21;13.88;81.46
69393;SHT31;56582;44.624;20.378;2024-03-06T06:29:46;13.91;79.10
69393;SHT31;56582;44.624;20.378;2024-03-06T06:32:12;14.05;80.83
69393;SHT31;56582;44.624;20.378;2024-03-06T06:34:37;14.43;80.05
69393;SHT31;56582;44.624;20.378;2024-03-06T06:37:03;14.57;79.73
69393;SHT31;56582;44.624;20.378;2024-03-06T06:39:28;14.52;79.36
69393;SHT31;56582;44.624;20.378;2024-03-06T06:41:54;14.05;79.64
69393;SHT31;56582;44.624;20.378;2024-03-06T06:44:19;14.11;78.55
69393;SHT31;56582;44.624;20.378;2024-03-06T06:46:45;14.40;78.42
69393;SHT31;56582;44.624;20.378;2024-03-06T06:49:10;14.33;78.25
69393;SHT31;56582;44.624;20.378;2024-03-06T06:51:36;14.28;77.67
69393;SHT31;56582;44.624;20.378;2024-03-06T06:54:01;14.02;77.19
69393;SHT31;56582;44.624;20.378;2024-03-06T06:56:27;13.87;78.93
69393;SHT31;56582;44.624;20.378;2024-03-06T06:58:54;13.69;79.53
69393;SHT31;56582;44.624;20.378;2024-03-06T07:01:19;13.84;80.00
69393;SHT31;56582;44.624;20.378;2024-03-06T07:03:45;13.59;79.78
69393;SHT31;56582;44.624;20.378;2024-03-06T07:06:12;13.27;80.30
69393;SHT31;56582;44.624;20.378;2024-03-06T07:08:37;12.96;80.75
69393;SHT31;56582;44.624;20.378;2024-03-06T07:11:03;12.85;80.64
69393;SHT31;56582;44.624;20.378;2024-03-06T07:13:28;12.61;80.90
69393;SHT31;56582;44.624;20.378;2024-03-06T07:15:54;12.67;81.72
69393;SHT31;56582;44.624;20.378;2024-03-06T07:18:19;12.61;82.64
69393;SHT31;56582;44.624;20.378;2024-03-06T07:20:45;12.55;82.87
69393;SHT31;56582;44.624;20.378;2024-03-06T07:23:11;12.38;82.73
69393;SHT31;56582;44.624;20.378;2024-03-06T07:25:36;11.78;83.87
69393;SHT31;56582;44.624;20.378;2024-03-06T07:28:02;11.81;84.35
69393;SHT31;56582;44.624;20.378;2024-03-06T07:30:27;11.96;84.68
69393;SHT31;56582;44.624;20.378;2024-03-06T07:32:55;12.00;84.72
69393;SHT31;56582;44.624;20.378;2024-03-06T07:35:20;11.81;83.81
69393;SHT31;56582;44.624;20.378;2024-03-06T07:37:46;12.05;83.06
69393;SHT31;56582;44.624;20.378;2024-03-06T07:40:12;11.61;83.66
69393;SHT31;56582;44.624;20.378;2024-03-06T07:42:37;11.78;84.07
69393;SHT31;56582;44.624;20.378;2024-03-06T07:45:05;11.76;84.22
69393;SHT31;56582;44.624;20.378;2024-03-06T07:47:30;11.81;84.67
69393;SHT31;56582;44.624;20.378;2024-03-06T07:49:56;11.72;84.42
69393;SHT31;56582;44.624;20.378;2024-03-06T07:52:21;11.89;84.40
69393;SHT31;56582;44.624;20.378;2024-03-06T07:54:47;11.96;84.37
69393;SHT31;56582;44.624;20.378;2024-03-06T07:57:12;11.93;83.69
69393;SHT31;56582;44.624;20.378;2024-03-06T07:59:38;12.12;84.89
69393;SHT31;56582;44.624;20.378;2024-03-06T08:02:03;12.14;84.29
69393;SHT31;56582;44.624;20.378;2024-03-06T08:04:31;12.12;84.32
69393;SHT31;56582;44.624;20.378;2024-03-06T08:06:57;12.19;83.32
69393;SHT31;56582;44.624;20.378;2024-03-06T08:09:22;12.13;82.93
69393;SHT31;56582;44.624;20.378;2024-03-06T08:11:49;11.86;84.08
69393;SHT31;56582;44.624;20.378;2024-03-06T08:14:14;11.82;84.46
69393;SHT31;56582;44.624;20.378;2024-03-06T08:16:42;11.93;84.27
69393;SHT31;56582;44.624;20.378;2024-03-06T08:19:08;12.19;82.75
69393;SHT31;56582;44.624;20.378;2024-03-06T08:21:33;12.16;84.10
69393;SHT31;56582;44.624;20.378;2024-03-06T08:23:59;12.16;83.80
69393;SHT31;56582;44.624;20.378;2024-03-06T08:26:24;11.96;84.53
69393;SHT31;56582;44.624;20.378;2024-03-06T08:28:50;12.03;85.33
69393;SHT31;56582;44.624;20.378;2024-03-06T08:31:17;12.20;84.43
69393;SHT31;56582;44.624;20.378;2024-03-06T08:33:42;12.17;84.21
69393;SHT31;56582;44.624;20.378;2024-03-06T08:36:09;12.41;83.37
69393;SHT31;56582;44.624;20.378;2024-03-06T08:38:35;12.43;83.34
69393;SHT31;56582;44.624;20.378;2024-03-06T08:41:00;12.64;83.02
69393;SHT31;56582;44.624;20.378;2024-03-06T08:43:26;12.55;82.28
69393;SHT31;56582;44.624;20.378;2024-03-06T08:45:52;12.45;82.60
69393;SHT31;56582;44.624;20.378;2024-03-06T08:48:17;12.61;81.91
69393;SHT31;56582;44.624;20.378;2024-03-06T08:50:43;12.87;81.44
69393;SHT31;56582;44.624;20.378;2024-03-06T08:53:09;12.95;82.07
69393;SHT31;56582;44.624;20.378;2024-03-06T08:55:34;13.13;82.89
69393;SHT31;56582;44.624;20.378;2024-03-06T08:58:00;12.51;82.68
69393;SHT31;56582;44.624;20.378;2024-03-06T09:00:26;12.50;83.57
69393;SHT31;56582;44.624;20.378;2024-03-06T09:02:52;12.77;83.25
69393;SHT31;56582;44.624;20.378;2024-03-06T09:05:18;12.58;82.73
69393;SHT31;56582;44.624;20.378;2024-03-06T09:07:44;12.44;83.49
69393;SHT31;56582;44.624;20.378;2024-03-06T09:10:12;12.71;82.83
69393;SHT31;56582;44.624;20.378;2024-03-06T09:12:39;12.75;82.50
69393;SHT31;56582;44.624;20.378;2024-03-06T09:15:05;13.01;80.95
69393;SHT31;56582;44.624;20.378;2024-03-06T09:17:32;13.03;81.71
69393;SHT31;56582;44.624;20.378;2024-03-06T09:19:58;13.01;82.76
69393;SHT31;56582;44.624;20.378;2024-03-06T09:22:23;13.08;82.26
69393;SHT31;56582;44.624;20.378;2024-03-06T09:24:49;13.09;81.60
69393;SHT31;56582;44.624;20.378;2024-03-06T09:27:15;13.22;80.71
69393;SHT31;56582;44.624;20.378;2024-03-06T09:29:42;13.18;80.83
69393;SHT31;56582;44.624;20.378;2024-03-06T09:32:08;13.08;80.55
69393;SHT31;56582;44.624;20.378;2024-03-06T09:34:34;13.02;80.57
69393;SHT31;56582;44.624;20.378;2024-03-06T09:36:59;13.30;81.15
69393;SHT31;56582;44.624;20.378;2024-03-06T09:39:25;13.29;81.77
69393;SHT31;56582;44.624;20.378;2024-03-06T09:41:50;13.40;80.88
69393;SHT31;56582;44.624;20.378;2024-03-06T09:44:17;13.56;82.04
69393;SHT31;56582;44.624;20.378;2024-03-06T09:46:48;13.70;78.93
69393;SHT31;56582;44.624;20.378;2024-03-06T09:49:18;13.82;78.46
69393;SHT31;56582;44.624;20.378;2024-03-06T09:51:46;13.59;78.57
69393;SHT31;56582;44.624;20.378;2024-03-06T09:54:16;14.00;79.40
69393;SHT31;56582;44.624;20.378;2024-03-06T09:56:46;14.26;80.98
69393;SHT31;56582;44.624;20.378;2024-03-06T09:59:12;14.46;79.37
69393;SHT31;56582;44.624;20.378;2024-03-06T10:02:00;14.60;77.74
69393;SHT31;56582;44.624;20.378;2024-03-06T10:04:28;14.77;76.98
69393;SHT31;56582;44.624;20.378;2024-03-06T10:06:58;15.00;77.50
69393;SHT31;56582;44.624;20.378;2024-03-06T10:09:24;15.21;75.08
69393;SHT31;56582;44.624;20.378;2024-03-06T10:11:50;15.34;73.90
69393;SHT31;56582;44.624;20.378;2024-03-06T10:14:19;15.52;73.31
69393;SHT31;56582;44.624;20.378;2024-03-06T10:16:58;15.58;71.60
69393;SHT31;56582;44.624;20.378;2024-03-06T10:19:25;15.75;74.16
69393;SHT31;56582;44.624;20.378;2024-03-06T10:21:53;15.81;73.44
69393;SHT31;56582;44.624;20.378;2024-03-06T10:24:28;15.76;70.09
69393;SHT31;56582;44.624;20.378;2024-03-06T10:26:58;16.23;72.29
69393;SHT31;56582;44.624;20.378;2024-03-06T10:29:26;16.45;71.27
69393;SHT31;56582;44.624;20.378;2024-03-06T10:31:56;16.61;70.65
69393;SHT31;56582;44.624;20.378;2024-03-06T10:34:26;16.51;67.29
69393;SHT31;56582;44.624;20.378;2024-03-06T10:36:56;15.83;68.93
69393;SHT31;56582;44.624;20.378;2024-03-06T10:39:23;15.42;69.03
69393;SHT31;56582;44.624;20.378;2024-03-06T10:41:55;15.63;72.03
69393;SHT31;56582;44.624;20.378;2024-03-06T10:44:23;15.66;69.08
69393;SHT31;56582;44.624;20.378;2024-03-06T10:47:01;15.92;70.48
69393;SHT31;56582;44.624;20.378;2024-03-06T10:49:28;15.63;71.76
69393;SHT31;56582;44.624;20.378;2024-03-06T10:52:02;15.10;73.35
69393;SHT31;56582;44.624;20.378;2024-03-06T10:54:32;15.20;74.29
69393;SHT31;56582;44.624;20.378;2024-03-06T10:57:00;14.97;74.07
69393;SHT31;56582;44.624;20.378;2024-03-06T10:59:27;14.77;74.22
69393;SHT31;56582;44.624;20.378;2024-03-06T11:01:56;14.66;74.40
69393;SHT31;56582;44.624;20.378;2024-03-06T11:04:26;14.09;75.95
69393;SHT31;56582;44.624;20.378;2024-03-06T11:06:59;14.01;77.23
69393;SHT31;56582;44.624;20.378;2024-03-06T11:09:26;14.09;77.92
69393;SHT31;56582;44.624;20.378;2024-03-06T11:11:53;13.87;77.70
69393;SHT31;56582;44.624;20.378;2024-03-06T11:14:22;13.90;78.00
69393;SHT31;56582;44.624;20.378;2024-03-06T11:17:15;13.60;78.68
69393;SHT31;56582;44.624;20.378;2024-03-06T11:30:47;13.88;78.90
69393;SHT31;56582;44.624;20.378;2024-03-06T11:33:15;13.78;79.04
69393;SHT31;56582;44.624;20.378;2024-03-06T11:36:19;13.87;79.97
69393;SHT31;56582;44.624;20.378;2024-03-06T11:38:58;13.85;80.41
69393;SHT31;56582;44.624;20.378;2024-03-06T11:41:27;13.82;79.18
69393;SHT31;56582;44.624;20.378;2024-03-06T11:43:54;13.82;78.67
69393;SHT31;56582;44.624;20.378;2024-03-06T11:49:28;13.71;77.25
69393;SHT31;56582;44.624;20.378;2024-03-06T11:52:08;13.69;77.70
69393;SHT31;56582;44.624;20.378;2024-03-06T11:54:34;13.75;77.62
69393;SHT31;56582;44.624;20.378;2024-03-06T11:57:01;13.87;78.27
69393;SHT31;56582;44.624;20.378;2024-03-06T11:59:31;13.84;78.26
69393;SHT31;56582;44.624;20.378;2024-03-06T12:02:00;13.90;78.63
69393;SHT31;56582;44.624;20.378;2024-03-06T12:04:34;13.95;78.25
69393;SHT31;56582;44.624;20.378;2024-03-06T12:07:01;13.80;78.41
69393;SHT31;56582;44.624;20.378;2024-03-06T12:09:35;13.87;79.25
69393;SHT31;56582;44.624;20.378;2024-03-06T12:12:01;13.92;78.43
69393;SHT31;56582;44.624;20.378;2024-03-06T12:14:27;13.64;78.10
69393;SHT31;56582;44.624;20.378;2024-03-06T12:17:02;13.54;78.07
69393;SHT31;56582;44.624;20.378;2024-03-06T12:19:33;13.71;78.34
69393;SHT31;56582;44.624;20.378;2024-03-06T12:22:03;13.81;77.27
69393;SHT31;56582;44.624;20.378;2024-03-06T12:24:32;13.95;78.25
69393;SHT31;56582;44.624;20.378;2024-03-06T12:27:06;14.15;77.93
69393;SHT31;56582;44.624;20.378;2024-03-06T12:29:34;14.36;77.65
69393;SHT31;56582;44.624;20.378;2024-03-06T12:32:02;14.40;77.63
69393;SHT31;56582;44.624;20.378;2024-03-06T12:34:28;14.59;78.13
69393;SHT31;56582;44.624;20.378;2024-03-06T12:36:55;14.73;78.25
69393;SHT31;56582;44.624;20.378;2024-03-06T12:39:23;14.84;77.79
69393;SHT31;56582;44.624;20.378;2024-03-06T12:41:52;14.98;73.56
69393;SHT31;56582;44.624;20.378;2024-03-06T12:44:19;15.03;74.66
69393;SHT31;56582;44.624;20.378;2024-03-06T12:46:45;15.10;75.46
69393;SHT31;56582;44.624;20.378;2024-03-06T12:49:10;15.21;75.36
69393;SHT31;56582;44.624;20.378;2024-03-06T12:51:36;15.18;76.04
69393;SHT31;56582;44.624;20.378;2024-03-06T12:54:01;15.12;72.83
69393;SHT31;56582;44.624;20.378;2024-03-06T12:56:29;15.32;74.81
69393;SHT31;56582;44.624;20.378;2024-03-06T12:58:54;15.44;72.29
69393;SHT31;56582;44.624;20.378;2024-03-06T13:01:20;15.49;70.93
69393;SHT31;56582;44.624;20.378;2024-03-06T13:03:45;15.55;72.81
69393;SHT31;56582;44.624;20.378;2024-03-06T13:06:11;15.69;71.94
69393;SHT31;56582;44.624;20.378;2024-03-06T13:08:36;15.76;70.84
69393;SHT31;56582;44.624;20.378;2024-03-06T13:11:02;15.73;68.80
69393;SHT31;56582;44.624;20.378;2024-03-06T13:13:28;15.99;70.99
69393;SHT31;56582;44.624;20.378;2024-03-06T13:15:54;16.12;69.11
69393;SHT31;56582;44.624;20.378;2024-03-06T13:18:20;16.20;71.46
69393;SHT31;56582;44.624;20.378;2024-03-06T13:20:45;16.33;70.43
69393;SHT31;56582;44.624;20.378;2024-03-06T13:23:11;16.33;68.62
69393;SHT31;56582;44.624;20.378;2024-03-06T13:25:37;16.23;67.57
69393;SHT31;56582;44.624;20.378;2024-03-06T13:28:06;15.92;69.06
69393;SHT31;56582;44.624;20.378;2024-03-06T13:30:31;15.72;69.73
69393;SHT31;56582;44.624;20.378;2024-03-06T13:32:58;15.58;69.23
69393;SHT31;56582;44.624;20.378;2024-03-06T13:35:23;15.58;68.81
69393;SHT31;56582;44.624;20.378;2024-03-06T13:37:50;15.31;68.35
69393;SHT31;56582;44.624;20.378;2024-03-06T13:40:16;14.97;69.18
69393;SHT31;56582;44.624;20.378;2024-03-06T13:42:43;15.14;69.73
69393;SHT31;56582;44.624;20.378;2024-03-06T13:45:09;15.08;70.09
69393;SHT31;56582;44.624;20.378;2024-03-06T13:47:38;15.10;69.62
69393;SHT31;56582;44.624;20.378;2024-03-06T13:50:11;15.28;70.67
69393;SHT31;56582;44.624;20.378;2024-03-06T13:52:37;15.34;69.22
69393;SHT31;56582;44.624;20.378;2024-03-06T13:55:02;15.44;70.81
69393;SHT31;56582;44.624;20.378;2024-03-06T13:57:31;15.38;71.03
69393;SHT31;56582;44.624;20.378;2024-03-06T14:00:08;15.34;71.45
69393;SHT31;56582;44.624;20.378;2024-03-06T14:02:43;15.42;71.18
69393;SHT31;56582;44.624;20.378;2024-03-06T14:05:12;15.39;72.93
69393;SHT31;56582;44.624;20.378;2024-03-06T14:07:39;15.23;72.79
69393;SHT31;56582;44.624;20.378;2024-03-06T14:10:07;15.25;72.34
69393;SHT31;56582;44.624;20.378;2024-03-06T14:12:36;15.25;72.90
69393;SHT31;56582;44.624;20.378;2024-03-06T14:15:04;15.08;73.21
69393;SHT31;56582;44.624;20.378;2024-03-06T14:17:29;15.24;71.68
69393;SHT31;56582;44.624;20.378;2024-03-06T14:19:55;15.12;72.04
69393;SHT31;56582;44.624;20.378;2024-03-06T14:22:21;15.12;70.87
69393;SHT31;56582;44.624;20.378;2024-03-06T14:24:47;14.98;71.79
69393;SHT31;56582;44.624;20.378;2024-03-06T14:27:13;15.04;71.96
69393;SHT31;56582;44.624;20.378;2024-03-06T14:29:39;15.06;71.49
69393;SHT31;56582;44.624;20.378;2024-03-06T14:32:05;14.87;70.98
69393;SHT31;56582;44.624;20.378;2024-03-06T14:34:34;14.84;71.71
69393;SHT31;56582;44.624;20.378;2024-03-06T14:37:04;14.66;72.59
69393;SHT31;56582;44.624;20.378;2024-03-06T14:39:29;14.63;72.55
69393;SHT31;56582;44.624;20.378;2024-03-06T14:41:55;14.56;72.25
69393;SHT31;56582;44.624;20.378;2024-03-06T14:44:21;14.33;73.45
69393;SHT31;56582;44.624;20.378;2024-03-06T14:46:46;14.26;73.64
69393;SHT31;56582;44.624;20.378;2024-03-06T14:49:12;14.21;74.96
69393;SHT31;56582;44.624;20.378;2024-03-06T14:51:37;14.01;76.97
69393;SHT31;56582;44.624;20.378;2024-03-06T14:54:03;13.97;77.92
69393;SHT31;56582;44.624;20.378;2024-03-06T14:56:29;13.75;79.23
69393;SHT31;56582;44.624;20.378;2024-03-06T14:58:56;13.47;81.45
69393;SHT31;56582;44.624;20.378;2024-03-06T15:01:22;13.35;82.86
69393;SHT31;56582;44.624;20.378;2024-03-06T15:03:49;13.32;83.13
69393;SHT31;56582;44.624;20.378;2024-03-06T15:06:15;13.19;83.36
69393;SHT31;56582;44.624;20.378;2024-03-06T15:08:41;13.05;84.34
69393;SHT31;56582;44.624;20.378;2024-03-06T15:11:10;12.96;85.25
69393;SHT31;56582;44.624;20.378;2024-03-06T15:13:35;12.82;85.49
69393;SHT31;56582;44.624;20.378;2024-03-06T15:16:01;12.69;86.06
69393;SHT31;56582;44.624;20.378;2024-03-06T15:18:29;12.68;86.13
69393;SHT31;56582;44.624;20.378;2024-03-06T15:20:54;12.43;86.16
69393;SHT31;56582;44.624;20.378;2024-03-06T15:23:20;12.54;85.73
69393;SHT31;56582;44.624;20.378;2024-03-06T15:25:45;12.57;85.34
69393;SHT31;56582;44.624;20.378;2024-03-06T15:28:11;12.58;85.11